createdAt,value
2023-03-11T00:02:16.715Z,96672.22
2023-03-11T00:04:44.027Z,96682.16
2023-03-11T00:07:10.725Z,96690.97
2023-03-11T00:09:37.315Z,96697.06
2023-03-11T00:12:04.102Z,96693.06
2023-03-11T00:14:30.573Z,96696.56
2023-03-11T00:16:57.110Z,96711.81
2023-03-11T00:19:23.649Z,96708.13
2023-03-11T00:21:50.437Z,96711.66
2023-03-11T00:24:16.897Z,96714.53
2023-03-11T00:26:43.380Z,96727.53
2023-03-11T00:29:09.834Z,96734.09
2023-03-11T00:31:36.316Z,96733.78
2023-03-11T00:34:02.852Z,96736.38
2023-03-11T00:36:33.889Z,96732.03
2023-03-11T00:39:02.001Z,96732.34
2023-03-11T00:41:28.784Z,96753.66
2023-03-11T00:43:55.264Z,96751.75
2023-03-11T00:46:21.796Z,96757.81
2023-03-11T00:48:50.914Z,96768.91
2023-03-11T00:51:17.479Z,96762.03
2023-03-11T00:53:44.161Z,96763.94
2023-03-11T00:56:11.560Z,96767.13
2023-03-11T00:58:38.159Z,96770.34
2023-03-11T01:01:22.782Z,96778.38
2023-03-11T01:03:49.532Z,96771.16
2023-03-11T01:06:16.019Z,96778.38
2023-03-11T01:08:42.537Z,96789.91
2023-03-11T01:11:09.110Z,96798.22
2023-03-11T01:13:35.594Z,96795.03
2023-03-11T01:16:02.228Z,96797.41
2023-03-11T01:18:29.001Z,96814.13
2023-03-11T01:20:55.476Z,96795.84
2023-03-11T01:23:22.071Z,96805.13
2023-03-11T01:25:48.837Z,96814.13
2023-03-11T01:28:15.311Z,96817.44
2023-03-11T01:30:42.339Z,96820.50
2023-03-11T01:33:11.337Z,96817.28
2023-03-11T01:35:40.217Z,96823.72
2023-03-11T01:38:06.696Z,96832.56
2023-03-11T01:40:40.896Z,96825.00
2023-03-11T01:43:28.183Z,96827.88
2023-03-11T01:45:54.737Z,96830.47
2023-03-11T01:48:21.192Z,96841.06
2023-03-11T01:50:49.326Z,96845.84
2023-03-11T01:53:16.144Z,96851.13
2023-03-11T01:55:43.180Z,96838.28
2023-03-11T01:58:11.996Z,96854.34
2023-03-11T02:00:38.475Z,96848.22
2023-03-11T02:03:29.558Z,96851.13
2023-03-11T02:05:56.214Z,96874.03
2023-03-11T02:08:22.854Z,96875.16
2023-03-11T02:10:49.542Z,96884.16
2023-03-11T02:13:16.183Z,96882.03
2023-03-11T02:15:42.674Z,96885.06
2023-03-11T02:18:09.210Z,96893.41
2023-03-11T02:20:50.954Z,96887.66
2023-03-11T02:23:17.750Z,96902.94
2023-03-11T02:25:46.983Z,96898.38
2023-03-11T02:28:13.646Z,96901.09
2023-03-11T02:30:40.972Z,96905.94
2023-03-11T02:33:07.780Z,96906.88
2023-03-11T02:35:34.295Z,96915.03
2023-03-11T02:38:00.872Z,96912.59
2023-03-11T02:40:29.435Z,96920.97
2023-03-11T02:43:04.000Z,96930.78
2023-03-11T02:45:30.688Z,96933.81
2023-03-11T02:47:57.480Z,96925.44
2023-03-11T02:50:23.932Z,96919.88
2023-03-11T02:52:50.392Z,96926.78
2023-03-11T02:55:18.074Z,96932.44
2023-03-11T02:57:45.063Z,96933.97
2023-03-11T03:00:15.018Z,96935.22
2023-03-11T03:02:42.148Z,96939.56
2023-03-11T03:05:08.877Z,96940.53
2023-03-11T03:07:35.334Z,96936.41
2023-03-11T03:10:01.847Z,96943.00
2023-03-11T03:12:28.305Z,96945.19
2023-03-11T03:14:54.772Z,96951.75
2023-03-11T03:17:21.253Z,96954.19
2023-03-11T03:19:47.779Z,96953.44
2023-03-11T03:22:14.594Z,96953.13
2023-03-11T03:24:41.070Z,96969.16
2023-03-11T03:27:07.536Z,96962.22
2023-03-11T03:29:33.984Z,96966.25
2023-03-11T03:32:00.530Z,96976.38
2023-03-11T03:34:27.112Z,96988.06
2023-03-11T03:36:53.578Z,96990.28
2023-03-11T03:39:20.362Z,96986.88
2023-03-11T03:41:46.834Z,96996.03
2023-03-11T03:44:13.309Z,97010.78
2023-03-11T03:46:39.787Z,97015.22
2023-03-11T03:49:06.239Z,97018.09
2023-03-11T03:51:32.732Z,97017.88
2023-03-11T03:53:59.184Z,97034.53
2023-03-11T03:56:25.677Z,97040.16
2023-03-11T03:58:53.361Z,97039.06
2023-03-11T04:01:19.896Z,97041.97
2023-03-11T04:03:46.459Z,97053.84
2023-03-11T04:06:20.696Z,97039.56
2023-03-11T04:08:47.509Z,97060.13
2023-03-11T04:11:14.291Z,97061.47
2023-03-11T04:13:41.319Z,97050.75
2023-03-11T04:16:07.831Z,97060.16
2023-03-11T04:18:34.476Z,97071.75
2023-03-11T04:21:04.432Z,97067.91
2023-03-11T04:23:30.975Z,97064.38
2023-03-11T04:25:57.487Z,97060.16
2023-03-11T04:28:23.945Z,97065.63
2023-03-11T04:30:50.442Z,97063.69
2023-03-11T04:33:16.932Z,97069.28
2023-03-11T04:35:43.394Z,97072.13
2023-03-11T04:38:09.945Z,97065.88
2023-03-11T04:40:39.242Z,97082.91
2023-03-11T04:43:05.701Z,97080.81
2023-03-11T04:45:32.280Z,97085.44
2023-03-11T04:47:58.751Z,97086.25
2023-03-11T04:50:25.212Z,97086.78
2023-03-11T04:52:51.687Z,97097.50
2023-03-11T04:55:18.187Z,97093.84
2023-03-11T04:57:44.692Z,97105.84
2023-03-11T05:00:12.038Z,97098.47
2023-03-11T05:02:38.975Z,97108.06
2023-03-11T05:05:05.942Z,97112.22
2023-03-11T05:07:32.429Z,97102.16
2023-03-11T05:09:58.963Z,97115.56
2023-03-11T05:12:25.424Z,97125.06
2023-03-11T05:14:51.889Z,97134.22
2023-03-11T05:17:19.298Z,97130.69
2023-03-11T05:19:46.022Z,97137.34
2023-03-11T05:22:12.490Z,97143.94
2023-03-11T05:24:38.954Z,97140.06
2023-03-11T05:27:05.508Z,97144.41
2023-03-11T05:29:32.520Z,97141.91
2023-03-11T05:31:59.071Z,97144.63
2023-03-11T05:34:25.596Z,97146.84
2023-03-11T05:36:52.082Z,97147.34
2023-03-11T05:39:18.603Z,97152.13
2023-03-11T05:41:45.098Z,97156.31
2023-03-11T05:44:11.555Z,97157.41
2023-03-11T05:46:38.076Z,97170.13
2023-03-11T05:49:04.566Z,97163.16
2023-03-11T05:51:31.138Z,97162.06
2023-03-11T05:53:58.637Z,97168.00
2023-03-11T05:56:25.111Z,97174.06
2023-03-11T05:58:51.813Z,97178.53
2023-03-11T06:01:18.913Z,97171.66
2023-03-11T06:03:45.751Z,97167.00
2023-03-11T06:06:12.593Z,97170.66
2023-03-11T06:08:39.088Z,97173.38
2023-03-11T06:11:07.548Z,97170.97
2023-03-11T06:13:34.107Z,97180.63
2023-03-11T06:16:00.609Z,97179.75
2023-03-11T06:18:27.157Z,97187.38
2023-03-11T06:20:54.245Z,97183.03
2023-03-11T06:23:20.809Z,97194.00
2023-03-11T06:26:00.922Z,97206.59
2023-03-11T06:28:27.608Z,97203.59
2023-03-11T06:30:56.632Z,97198.13
2023-03-11T06:33:23.968Z,97206.31
2023-03-11T06:36:00.256Z,97199.97
2023-03-11T06:38:26.847Z,97207.56
2023-03-11T06:40:53.311Z,97212.59
2023-03-11T06:43:19.880Z,97217.44
2023-03-11T06:45:46.399Z,97211.44
2023-03-11T06:48:12.914Z,97231.22
2023-03-11T06:50:39.387Z,97226.69
2023-03-11T06:53:08.690Z,97233.03
2023-03-11T06:55:35.645Z,97220.53
2023-03-11T06:58:02.658Z,97233.47
2023-03-11T07:00:31.114Z,97243.06
2023-03-11T07:02:57.850Z,97239.44
2023-03-11T07:05:24.326Z,97247.38
2023-03-11T07:07:53.773Z,97252.09
2023-03-11T07:10:20.326Z,97257.16
2023-03-11T07:12:46.882Z,97260.19
2023-03-11T07:15:14.076Z,97273.09
2023-03-11T07:17:40.661Z,97272.06
2023-03-11T07:20:07.712Z,97275.81
2023-03-11T07:22:34.181Z,97283.78
2023-03-11T07:25:00.700Z,97285.59
2023-03-11T07:27:27.973Z,97290.00
2023-03-11T07:29:54.437Z,97280.09
2023-03-11T07:32:20.955Z,97289.13
2023-03-11T07:34:47.530Z,97288.09
2023-03-11T07:37:14.316Z,97296.75
2023-03-11T07:39:40.917Z,97295.34
2023-03-11T07:42:07.664Z,97296.47
2023-03-11T07:44:34.209Z,97299.25
2023-03-11T07:47:03.285Z,97305.25
2023-03-11T07:49:29.780Z,97312.41
2023-03-11T07:51:56.300Z,97316.53
2023-03-11T07:54:22.766Z,97325.19
2023-03-11T07:56:49.393Z,97328.06
2023-03-11T07:59:15.856Z,97334.34
2023-03-11T08:01:47.056Z,97341.22
2023-03-11T08:04:14.824Z,97340.81
2023-03-11T08:06:41.601Z,97339.03
2023-03-11T08:09:08.992Z,97349.53
2023-03-11T08:11:35.950Z,97358.13
2023-03-11T08:14:02.482Z,97364.13
2023-03-11T08:16:29.352Z,97369.38
2023-03-11T08:18:55.825Z,97380.00
2023-03-11T08:21:24.049Z,97381.09
2023-03-11T08:23:50.628Z,97381.78
2023-03-11T08:26:18.701Z,97387.25
2023-03-11T08:28:45.292Z,97393.50
2023-03-11T08:31:15.940Z,97394.25
2023-03-11T08:33:43.542Z,97387.47
2023-03-11T08:36:10.366Z,97390.56
2023-03-11T08:38:36.966Z,97397.44
2023-03-11T08:41:03.545Z,97404.09
2023-03-11T08:43:30.027Z,97396.63
2023-03-11T08:45:56.507Z,97409.78
2023-03-11T08:48:25.358Z,97410.50
2023-03-11T08:50:54.538Z,97420.31
2023-03-11T08:53:22.346Z,97420.31
2023-03-11T08:55:49.808Z,97415.72
2023-03-11T08:58:16.288Z,97418.59
2023-03-11T09:00:42.748Z,97422.81
2023-03-11T09:03:10.021Z,97417.84
2023-03-11T09:05:36.694Z,97423.50
2023-03-11T09:08:05.427Z,97419.47
2023-03-11T09:10:32.299Z,97420.78
2023-03-11T09:12:58.765Z,97419.00
2023-03-11T09:15:25.438Z,97421.63
2023-03-11T09:17:52.923Z,97439.25
2023-03-11T09:20:19.659Z,97439.97
2023-03-11T09:22:46.198Z,97444.91
2023-03-11T09:25:12.749Z,97445.72
2023-03-11T09:27:39.268Z,97451.25
2023-03-11T09:30:06.160Z,97443.84
2023-03-11T09:32:32.689Z,97446.41
2023-03-11T09:35:00.179Z,97438.97
2023-03-11T09:37:27.275Z,97450.19
2023-03-11T09:39:53.746Z,97466.69
2023-03-11T09:42:33.930Z,97461.38
2023-03-11T09:45:09.763Z,97471.34
2023-03-11T09:48:02.601Z,97456.53
2023-03-11T09:50:33.771Z,97463.66
2023-03-11T09:53:18.075Z,97467.84
2023-03-11T09:55:52.387Z,97457.88
2023-03-11T09:58:34.587Z,97462.03
2023-03-11T10:01:01.113Z,97458.00
2023-03-11T10:03:37.333Z,97460.41
2023-03-11T10:06:21.732Z,97469.63
2023-03-11T10:08:59.157Z,97464.78
2023-03-11T10:12:02.807Z,97461.69
2023-03-11T10:14:39.814Z,97460.09
2023-03-11T10:17:20.435Z,97467.88
2023-03-11T10:20:04.788Z,97464.63
2023-03-11T10:22:42.397Z,97453.78
2023-03-11T10:25:18.256Z,97455.59
2023-03-11T10:28:01.814Z,97453.03
2023-03-11T10:30:43.532Z,97453.81
2023-03-11T10:33:12.594Z,97451.44
2023-03-11T10:35:40.830Z,97468.94
2023-03-11T10:38:15.949Z,97479.25
2023-03-11T10:40:48.781Z,97472.97
2023-03-11T10:43:21.499Z,97459.97
2023-03-11T10:45:48.559Z,97472.47
2023-03-11T10:48:16.421Z,97484.09
2023-03-11T10:51:01.253Z,97471.84
2023-03-11T10:53:29.066Z,97472.66
2023-03-11T10:55:57.537Z,97480.06
2023-03-11T10:58:25.934Z,97496.56
2023-03-11T11:01:22.216Z,97485.56
2023-03-11T11:03:50.368Z,97487.63
2023-03-11T11:06:34.745Z,97480.75
2023-03-11T11:09:21.802Z,97495.88
2023-03-11T11:12:08.996Z,97484.88
2023-03-11T11:15:01.755Z,97490.38
2023-03-11T11:17:32.706Z,97493.97
2023-03-11T11:19:59.226Z,97480.31
2023-03-11T11:22:25.696Z,97474.94
2023-03-11T11:24:54.152Z,97481.53
2023-03-11T11:27:20.557Z,97494.69
2023-03-11T11:29:47.712Z,97504.06
2023-03-11T11:32:25.045Z,97492.03
2023-03-11T11:34:55.623Z,97477.19
2023-03-11T11:37:23.237Z,97485.47
2023-03-11T11:40:01.479Z,97488.13
2023-03-11T11:42:28.329Z,97486.06
2023-03-11T11:45:10.182Z,97477.09
2023-03-11T11:47:36.708Z,97474.34
2023-03-11T11:50:07.290Z,97497.13
2023-03-11T11:52:55.809Z,97502.09
2023-03-11T11:55:26.470Z,97491.97
2023-03-11T11:57:53.031Z,97493.63
2023-03-11T12:00:30.974Z,97489.25
2023-03-11T12:03:10.369Z,97504.25
2023-03-11T12:05:43.766Z,97505.53
2023-03-11T12:08:34.524Z,97506.22
2023-03-11T12:11:07.827Z,97479.50
2023-03-11T12:13:50.781Z,97479.00
2023-03-11T12:16:26.984Z,97489.31
2023-03-11T12:18:58.238Z,97480.97
2023-03-11T12:22:02.347Z,97476.34
2023-03-11T12:24:44.606Z,97478.03
2023-03-11T12:27:51.774Z,97457.53
2023-03-11T12:30:39.330Z,97455.66
2023-03-11T12:33:09.150Z,97463.13
2023-03-11T12:35:35.777Z,97454.94
2023-03-11T12:38:37.507Z,97458.34
2023-03-11T12:41:07.701Z,97448.84
2023-03-11T12:43:34.264Z,97454.97
2023-03-11T12:46:00.997Z,97480.63
2023-03-11T12:48:27.326Z,97472.81
2023-03-11T12:50:54.523Z,97492.66
2023-03-11T12:53:21.177Z,97487.81
2023-03-11T12:56:21.887Z,97516.38
2023-03-11T12:58:59.655Z,97502.59
2023-03-11T13:01:51.046Z,97514.34
2023-03-11T13:04:25.284Z,97524.06
2023-03-11T13:07:28.834Z,97531.91
2023-03-11T13:10:16.680Z,97519.69
2023-03-11T13:12:49.868Z,97530.16
2023-03-11T13:15:22.194Z,97532.81
2023-03-11T13:18:13.648Z,97509.91
2023-03-11T13:20:42.972Z,97522.50
2023-03-11T13:23:12.375Z,97515.41
2023-03-11T13:25:40.271Z,97516.13
2023-03-11T13:28:34.177Z,97505.22
2023-03-11T13:31:26.423Z,97506.41
2023-03-11T13:33:58.038Z,97504.53
2023-03-11T13:36:52.804Z,97504.44
2023-03-11T13:39:30.702Z,97520.88
2023-03-11T13:41:57.267Z,97531.59
2023-03-11T13:44:29.337Z,97509.84
2023-03-11T13:47:24.071Z,97525.81
2023-03-11T13:50:09.316Z,97511.63
2023-03-11T13:52:38.211Z,97523.84
2023-03-11T13:55:09.156Z,97528.84
2023-03-11T13:57:36.845Z,97528.84
2023-03-11T14:00:17.786Z,97546.31
2023-03-11T14:02:51.052Z,97550.09
2023-03-11T14:05:19.696Z,97547.94
2023-03-11T14:07:46.155Z,97553.59
2023-03-11T14:10:26.805Z,97563.31
2023-03-11T14:13:06.926Z,97562.44
2023-03-11T14:15:40.774Z,97567.81
2023-03-11T14:18:37.706Z,97562.94
2023-03-11T14:21:05.849Z,97553.56
2023-03-11T14:23:41.316Z,97537.91
2023-03-11T14:26:09.632Z,97544.28
2023-03-11T14:28:38.623Z,97538.84
2023-03-11T14:31:05.333Z,97542.84
2023-03-11T14:33:31.858Z,97550.66
2023-03-11T14:36:00.176Z,97536.59
2023-03-11T14:38:28.443Z,97573.38
2023-03-11T14:41:04.710Z,97544.78
2023-03-11T14:43:37.182Z,97551.25
2023-03-11T14:46:03.786Z,97541.50
2023-03-11T14:48:33.580Z,97529.41
2023-03-11T14:51:00.044Z,97546.97
2023-03-11T14:53:38.092Z,97557.00
2023-03-11T14:56:11.472Z,97551.69
2023-03-11T14:58:40.645Z,97560.16
2023-03-11T15:01:12.596Z,97562.41
2023-03-11T15:03:41.340Z,97572.44
2023-03-11T15:06:23.178Z,97572.75
2023-03-11T15:08:51.677Z,97569.88
2023-03-11T15:11:21.459Z,97585.38
2023-03-11T15:13:50.660Z,97571.50
2023-03-11T15:16:24.491Z,97571.69
2023-03-11T15:18:51.014Z,97586.03
2023-03-11T15:21:19.627Z,97575.22
2023-03-11T15:23:59.293Z,97608.47
2023-03-11T15:26:27.175Z,97604.72
2023-03-11T15:28:55.399Z,97595.88
2023-03-11T15:31:21.724Z,97600.50
2023-03-11T15:33:48.403Z,97608.19
2023-03-11T15:36:34.867Z,97606.13
2023-03-11T15:39:13.718Z,97608.72
2023-03-11T15:41:48.081Z,97616.25
2023-03-11T15:44:31.174Z,97604.03
2023-03-11T15:46:59.628Z,97613.59
2023-03-11T15:49:26.706Z,97643.00
2023-03-11T15:51:53.177Z,97597.91
2023-03-11T15:54:19.914Z,97608.31
2023-03-11T15:56:46.415Z,97611.25
2023-03-11T15:59:14.315Z,97595.78
2023-03-11T16:01:40.850Z,97625.03
2023-03-11T16:04:13.041Z,97626.72
2023-03-11T16:06:39.608Z,97631.00
2023-03-11T16:09:06.109Z,97622.81
2023-03-11T16:11:32.730Z,97628.03
2023-03-11T16:13:59.562Z,97621.28
2023-03-11T16:16:26.115Z,97616.78
2023-03-11T16:18:52.882Z,97626.50
2023-03-11T16:21:21.096Z,97615.31
2023-03-11T16:23:52.038Z,97622.63
2023-03-11T16:26:18.887Z,97621.72
2023-03-11T16:28:45.352Z,97622.34
2023-03-11T16:31:11.966Z,97632.66
2023-03-11T16:33:38.477Z,97629.03
2023-03-11T16:36:05.506Z,97628.63
2023-03-11T16:38:32.080Z,97627.94
2023-03-11T16:40:59.978Z,97630.47
2023-03-11T16:43:27.482Z,97629.66
2023-03-11T16:45:54.766Z,97630.47
2023-03-11T16:48:22.269Z,97637.56
2023-03-11T16:50:48.821Z,97631.69
2023-03-11T16:53:17.405Z,97636.53
2023-03-11T16:55:45.006Z,97632.47
2023-03-11T16:58:12.077Z,97632.38
2023-03-11T17:00:38.670Z,97643.72
2023-03-11T17:03:05.227Z,97640.97
2023-03-11T17:05:31.718Z,97646.09
2023-03-11T17:08:00.957Z,97647.47
2023-03-11T17:10:37.477Z,97655.25
2023-03-11T17:13:05.107Z,97649.94
2023-03-11T17:15:35.785Z,97652.09
2023-03-11T17:18:02.292Z,97652.94
2023-03-11T17:20:28.793Z,97656.25
2023-03-11T17:22:55.250Z,97653.75
2023-03-11T17:25:22.085Z,97658.75
2023-03-11T17:27:48.608Z,97654.63
2023-03-11T17:30:24.304Z,97651.97
2023-03-11T17:32:57.501Z,97657.75
2023-03-11T17:35:24.009Z,97662.47
2023-03-11T17:37:50.545Z,97657.66
2023-03-11T17:40:17.207Z,97655.69
2023-03-11T17:42:43.745Z,97661.72
2023-03-11T17:45:10.497Z,97670.63
2023-03-11T17:47:36.980Z,97675.19
2023-03-11T17:50:04.693Z,97675.63
2023-03-11T17:52:31.207Z,97668.78
2023-03-11T17:54:57.795Z,97669.75
2023-03-11T17:57:24.286Z,97669.88
2023-03-11T17:59:51.501Z,97678.28
2023-03-11T18:02:18.283Z,97674.97
2023-03-11T18:04:46.021Z,97681.13
2023-03-11T18:07:12.872Z,97672.75
2023-03-11T18:09:39.373Z,97676.34
2023-03-11T18:12:06.781Z,97682.53
2023-03-11T18:14:33.273Z,97682.97
2023-03-11T18:16:59.787Z,97688.19
2023-03-11T18:19:26.249Z,97689.13
2023-03-11T18:21:52.727Z,97687.03
2023-03-11T18:24:19.196Z,97687.75
2023-03-11T18:26:46.097Z,97689.84
2023-03-11T18:29:12.572Z,97688.97
2023-03-11T18:31:39.396Z,97690.53
2023-03-11T18:34:12.209Z,97688.47
2023-03-11T18:36:39.329Z,97694.41
2023-03-11T18:39:05.998Z,97688.22
2023-03-11T18:41:33.833Z,97697.25
2023-03-11T18:44:00.353Z,97685.31
2023-03-11T18:46:28.666Z,97695.34
2023-03-11T18:48:57.351Z,97694.59
2023-03-11T18:51:28.051Z,97697.56
2023-03-11T18:53:54.503Z,97696.16
2023-03-11T18:56:21.058Z,97685.31
2023-03-11T18:58:47.593Z,97699.50
2023-03-11T19:01:15.939Z,97707.63
2023-03-11T19:03:42.820Z,97702.94
2023-03-11T19:06:09.892Z,97704.38
2023-03-11T19:08:36.369Z,97700.16
2023-03-11T19:11:07.221Z,97704.50
2023-03-11T19:13:46.305Z,97697.25
2023-03-11T19:16:13.395Z,97701.84
2023-03-11T19:18:39.862Z,97697.13
2023-03-11T19:21:07.115Z,97691.88
2023-03-11T19:23:33.708Z,97693.91
2023-03-11T19:26:03.387Z,97699.84
2023-03-11T19:28:30.106Z,97695.50
2023-03-11T19:30:57.575Z,97692.91
2023-03-11T19:33:24.390Z,97692.34
2023-03-11T19:35:54.823Z,97687.38
2023-03-11T19:38:21.672Z,97689.09
2023-03-11T19:40:54.927Z,97691.84
2023-03-11T19:43:21.556Z,97700.38
2023-03-11T19:45:49.489Z,97707.97
2023-03-11T19:48:16.471Z,97713.66
2023-03-11T19:50:43.094Z,97715.50
2023-03-11T19:53:09.593Z,97719.81
2023-03-11T19:55:36.052Z,97713.78
2023-03-11T19:58:02.525Z,97706.78
2023-03-11T20:00:30.496Z,97705.56
2023-03-11T20:02:57.344Z,97702.63
2023-03-11T20:05:23.853Z,97703.19
2023-03-11T20:07:50.375Z,97710.25
2023-03-11T20:10:17.688Z,97703.06
2023-03-11T20:13:01.429Z,97713.69
2023-03-11T20:15:29.102Z,97706.91
2023-03-11T20:17:55.912Z,97712.31
2023-03-11T20:20:22.670Z,97709.50
2023-03-11T20:22:49.452Z,97713.44
2023-03-11T20:25:16.159Z,97709.50
2023-03-11T20:27:42.982Z,97713.03
2023-03-11T20:30:10.048Z,97717.88
2023-03-11T20:32:36.518Z,97717.19
2023-03-11T20:35:03.281Z,97716.78
2023-03-11T20:37:30.307Z,97724.94
2023-03-11T20:39:56.798Z,97721.94
2023-03-11T20:42:23.314Z,97725.00
2023-03-11T20:44:53.423Z,97715.38
2023-03-11T20:47:20.017Z,97726.28
2023-03-11T20:49:46.611Z,97730.28
2023-03-11T20:52:13.206Z,97730.06
2023-03-11T20:54:40.074Z,97729.69
2023-03-11T20:57:06.923Z,97730.09
2023-03-11T20:59:33.484Z,97739.72
2023-03-11T21:02:00.122Z,97736.41
2023-03-11T21:04:26.675Z,97729.16
2023-03-11T21:06:54.768Z,97725.59
2023-03-11T21:09:21.352Z,97737.78
2023-03-11T21:11:47.919Z,97736.69
2023-03-11T21:14:17.762Z,97734.56
2023-03-11T21:16:45.314Z,97734.06
2023-03-11T21:19:13.373Z,97736.31
2023-03-11T21:21:40.115Z,97731.69
2023-03-11T21:24:06.940Z,97739.31
2023-03-11T21:26:33.559Z,97733.53
2023-03-11T21:29:02.367Z,97737.63
2023-03-11T21:31:29.773Z,97735.66
2023-03-11T21:33:57.218Z,97733.69
2023-03-11T21:36:23.806Z,97738.13
2023-03-11T21:38:50.385Z,97732.28
2023-03-11T21:41:25.087Z,97739.22
2023-03-11T21:43:52.398Z,97739.50
2023-03-11T21:46:20.509Z,97733.59
2023-03-11T21:48:47.192Z,97731.19
2023-03-11T21:51:14.361Z,97743.09
2023-03-11T21:53:40.971Z,97735.53
2023-03-11T21:56:07.829Z,97731.97
2023-03-11T21:58:34.419Z,97741.16
2023-03-11T22:01:01.253Z,97732.63
2023-03-11T22:03:28.049Z,97736.09
2023-03-11T22:06:01.652Z,97738.69
2023-03-11T22:08:28.200Z,97734.72
2023-03-11T22:10:54.885Z,97739.63
2023-03-11T22:13:21.410Z,97740.69
2023-03-11T22:15:48.330Z,97741.03
2023-03-11T22:18:17.172Z,97738.84
2023-03-11T22:20:43.757Z,97738.09
2023-03-11T22:23:10.241Z,97739.84
2023-03-11T22:25:36.810Z,97741.16
2023-03-11T22:28:03.444Z,97741.22
2023-03-11T22:30:29.909Z,97741.41
2023-03-11T22:32:56.510Z,97740.56
2023-03-11T22:35:23.009Z,97740.31
2023-03-11T22:37:49.470Z,97747.66
2023-03-11T22:40:15.995Z,97735.78
2023-03-11T22:42:42.457Z,97739.84
2023-03-11T22:45:09.109Z,97735.16
2023-03-11T22:47:35.621Z,97737.59
2023-03-11T22:50:02.183Z,97736.41
2023-03-11T22:52:28.667Z,97744.38
2023-03-11T22:54:55.241Z,97744.75
2023-03-11T22:57:21.765Z,97746.41
2023-03-11T22:59:48.238Z,97755.94
2023-03-11T23:02:14.708Z,97754.72
2023-03-11T23:04:44.488Z,97743.84
2023-03-11T23:07:12.044Z,97751.91
2023-03-11T23:09:38.556Z,97752.13
2023-03-11T23:12:05.499Z,97746.97
2023-03-11T23:14:44.214Z,97750.25
2023-03-11T23:17:11.435Z,97761.00
2023-03-11T23:19:37.975Z,97758.78
2023-03-11T23:22:04.502Z,97756.91
2023-03-11T23:24:30.977Z,97751.44
2023-03-11T23:26:57.455Z,97753.66
2023-03-11T23:29:23.916Z,97756.34
2023-03-11T23:31:50.438Z,97748.28
2023-03-11T23:34:16.940Z,97758.03
2023-03-11T23:36:43.410Z,97755.81
2023-03-11T23:39:09.871Z,97759.44
2023-03-11T23:41:37.851Z,97762.97
2023-03-11T23:44:04.585Z,97767.34
2023-03-11T23:46:31.147Z,97758.34
2023-03-11T23:48:57.662Z,97766.25
2023-03-11T23:51:24.185Z,97763.53
2023-03-11T23:53:50.647Z,97757.38
2023-03-11T23:56:17.442Z,97765.53
2023-03-11T23:58:44.235Z,97764.09
